sensor_id;sensor_type;location;lat;lon;timestamp;temperature;humidity
63976;DHT22;50167;47.958;21.780;2023-11-21T00:01:26;14.51;61.20
63976;DHT22;50167;47.958;21.780;2023-11-21T00:03:52;14.81;59.96
63976;DHT22;50167;47.958;21.780;2023-11-21T00:06:20;15.06;58.86
63976;DHT22;50167;47.958;21.780;2023-11-21T00:08:46;14.48;56.70
63976;DHT22;50167;47.958;21.780;2023-11-21T00:11:12;13.27;58.61
63976;DHT22;50167;47.958;21.780;2023-11-21T00:13:38;12.28;60.89
63976;DHT22;50167;47.958;21.780;2023-11-21T00:16:05;11.57;62.77
63976;DHT22;50167;47.958;21.780;2023-11-21T00:18:33;12.07;67.58
63976;DHT22;50167;47.958;21.780;2023-11-21T00:20:59;13.43;65.33
63976;DHT22;50167;47.958;21.780;2023-11-21T00:23:25;14.27;62.24
63976;DHT22;50167;47.958;21.780;2023-11-21T00:25:51;14.72;59.94
63976;DHT22;50167;47.958;21.780;2023-11-21T00:28:17;14.44;57.37
63976;DHT22;50167;47.958;21.780;2023-11-21T00:30:44;13.30;58.49
63976;DHT22;50167;47.958;21.780;2023-11-21T00:33:10;12.30;60.50
63976;DHT22;50167;47.958;21.780;2023-11-21T00:35:36;11.51;62.62
63976;DHT22;50167;47.958;21.780;2023-11-21T00:38:02;11.78;66.78
63976;DHT22;50167;47.958;21.780;2023-11-21T00:40:29;12.89;65.60
63976;DHT22;50167;47.958;21.780;2023-11-21T00:42:55;13.65;62.71
63976;DHT22;50167;47.958;21.780;2023-11-21T00:45:23;14.03;61.08
63976;DHT22;50167;47.958;21.780;2023-11-21T00:47:49;14.30;59.96
63976;DHT22;50167;47.958;21.780;2023-11-21T00:50:15;14.57;59.33
63976;DHT22;50167;47.958;21.780;2023-11-21T00:52:41;14.12;57.10
63976;DHT22;50167;47.958;21.780;2023-11-21T00:55:08;12.99;58.46
63976;DHT22;50167;47.958;21.780;2023-11-21T00:57:35;12.00;60.42
63976;DHT22;50167;47.958;21.780;2023-11-21T01:00:04;11.28;62.20
63976;DHT22;50167;47.958;21.780;2023-11-21T01:02:35;11.69;66.66
63976;DHT22;50167;47.958;21.780;2023-11-21T01:05:01;12.91;64.37
63976;DHT22;50167;47.958;21.780;2023-11-21T01:07:28;13.65;61.33
63976;DHT22;50167;47.958;21.780;2023-11-21T01:09:54;14.09;59.29
63976;DHT22;50167;47.958;21.780;2023-11-21T01:12:22;13.55;56.78
63976;DHT22;50167;47.958;21.780;2023-11-21T01:14:50;12.33;57.92
63976;DHT22;50167;47.958;21.780;2023-11-21T01:17:17;11.28;60.27
63976;DHT22;50167;47.958;21.780;2023-11-21T01:19:44;10.48;62.32
63976;DHT22;50167;47.958;21.780;2023-11-21T01:22:10;10.82;66.98
63976;DHT22;50167;47.958;21.780;2023-11-21T01:24:37;11.90;64.90
63976;DHT22;50167;47.958;21.780;2023-11-21T01:27:04;12.49;62.35
63976;DHT22;50167;47.958;21.780;2023-11-21T01:29:30;12.85;60.83
63976;DHT22;50167;47.958;21.780;2023-11-21T01:31:56;12.99;60.21
63976;DHT22;50167;47.958;21.780;2023-11-21T01:34:23;13.17;59.93
63976;DHT22;50167;47.958;21.780;2023-11-21T01:36:49;13.48;59.36
63976;DHT22;50167;47.958;21.780;2023-11-21T01:39:15;13.07;56.68
63976;DHT22;50167;47.958;21.780;2023-11-21T01:41:42;11.83;57.60
63976;DHT22;50167;47.958;21.780;2023-11-21T01:44:11;10.82;59.98
63976;DHT22;50167;47.958;21.780;2023-11-21T01:46:39;10.07;61.90
63976;DHT22;50167;47.958;21.780;2023-11-21T01:49:05;10.46;66.60
63976;DHT22;50167;47.958;21.780;2023-11-21T01:51:32;11.55;64.64
63976;DHT22;50167;47.958;21.780;2023-11-21T01:53:58;12.13;62.24
63976;DHT22;50167;47.958;21.780;2023-11-21T01:56:25;12.40;60.86
63976;DHT22;50167;47.958;21.780;2023-11-21T01:58:52;12.59;60.20
63976;DHT22;50167;47.958;21.780;2023-11-21T02:01:18;12.91;59.41
63976;DHT22;50167;47.958;21.780;2023-11-21T02:03:44;12.49;56.74
63976;DHT22;50167;47.958;21.780;2023-11-21T02:06:11;11.41;58.01
63976;DHT22;50167;47.958;21.780;2023-11-21T02:08:37;10.49;60.64
63976;DHT22;50167;47.958;21.780;2023-11-21T02:11:04;9.83;62.68
63976;DHT22;50167;47.958;21.780;2023-11-21T02:13:31;10.18;67.37
63976;DHT22;50167;47.958;21.780;2023-11-21T02:15:59;11.18;65.81
63976;DHT22;50167;47.958;21.780;2023-11-21T02:18:25;11.72;64.11
63976;DHT22;50167;47.958;21.780;2023-11-21T02:20:54;12.17;62.35
63976;DHT22;50167;47.958;21.780;2023-11-21T02:23:20;12.49;60.94
63976;DHT22;50167;47.958;21.780;2023-11-21T02:25:48;12.65;59.37
63976;DHT22;50167;47.958;21.780;2023-11-21T02:28:14;12.21;57.41
63976;DHT22;50167;47.958;21.780;2023-11-21T02:30:42;11.13;58.38
63976;DHT22;50167;47.958;21.780;2023-11-21T02:33:09;10.21;60.19
63976;DHT22;50167;47.958;21.780;2023-11-21T02:35:35;9.49;62.02
63976;DHT22;50167;47.958;21.780;2023-11-21T02:38:01;9.77;66.46
63976;DHT22;50167;47.958;21.780;2023-11-21T02:40:29;10.46;65.11
63976;DHT22;50167;47.958;21.780;2023-11-21T02:42:55;11.11;64.86
63976;DHT22;50167;47.958;21.780;2023-11-21T02:45:23;11.80;62.84
63976;DHT22;50167;47.958;21.780;2023-11-21T02:47:50;12.26;60.98
63976;DHT22;50167;47.958;21.780;2023-11-21T02:50:16;12.48;60.33
63976;DHT22;50167;47.958;21.780;2023-11-21T02:52:44;12.65;59.16
63976;DHT22;50167;47.958;21.780;2023-11-21T02:55:10;12.16;56.59
63976;DHT22;50167;47.958;21.780;2023-11-21T02:57:36;10.99;57.71
63976;DHT22;50167;47.958;21.780;2023-11-21T03:00:04;9.98;60.66
63976;DHT22;50167;47.958;21.780;2023-11-21T03:02:34;9.08;61.37
63976;DHT22;50167;47.958;21.780;2023-11-21T03:05:03;9.28;66.83
63976;DHT22;50167;47.958;21.780;2023-11-21T03:07:31;10.48;66.29
63976;DHT22;50167;47.958;21.780;2023-11-21T03:09:57;11.22;63.02
63976;DHT22;50167;47.958;21.780;2023-11-21T03:12:23;11.70;61.19
63976;DHT22;50167;47.958;21.780;2023-11-21T03:14:49;11.97;59.28
63976;DHT22;50167;47.958;21.780;2023-11-21T03:17:15;11.55;56.59
63976;DHT22;50167;47.958;21.780;2023-11-21T03:19:42;10.39;57.69
63976;DHT22;50167;47.958;21.780;2023-11-21T03:22:08;9.45;59.48
63976;DHT22;50167;47.958;21.780;2023-11-21T03:24:35;8.66;60.92
63976;DHT22;50167;47.958;21.780;2023-11-21T03:27:02;8.00;62.20
63976;DHT22;50167;47.958;21.780;2023-11-21T03:29:28;8.38;67.49
63976;DHT22;50167;47.958;21.780;2023-11-21T03:31:54;9.56;66.61
63976;DHT22;50167;47.958;21.780;2023-11-21T03:34:26;10.38;63.65
63976;DHT22;50167;47.958;21.780;2023-11-21T03:36:53;10.93;61.35
63976;DHT22;50167;47.958;21.780;2023-11-21T03:39:21;11.13;58.86
63976;DHT22;50167;47.958;21.780;2023-11-21T03:41:48;10.52;56.41
63976;DHT22;50167;47.958;21.780;2023-11-21T03:44:14;9.35;57.60
63976;DHT22;50167;47.958;21.780;2023-11-21T03:46:41;8.33;59.58
63976;DHT22;50167;47.958;21.780;2023-11-21T03:49:07;7.55;60.74
63976;DHT22;50167;47.958;21.780;2023-11-21T03:51:33;6.96;63.03
63976;DHT22;50167;47.958;21.780;2023-11-21T03:53:59;7.36;67.63
63976;DHT22;50167;47.958;21.780;2023-11-21T03:56:26;8.39;67.53
63976;DHT22;50167;47.958;21.780;2023-11-21T03:58:52;9.38;66.09
63976;DHT22;50167;47.958;21.780;2023-11-21T04:01:23;10.04;63.55
63976;DHT22;50167;47.958;21.780;2023-11-21T04:03:50;10.55;61.19
63976;DHT22;50167;47.958;21.780;2023-11-21T04:06:17;10.92;59.28
63976;DHT22;50167;47.958;21.780;2023-11-21T04:08:46;10.41;56.33
63976;DHT22;50167;47.958;21.780;2023-11-21T04:11:13;9.15;57.43
63976;DHT22;50167;47.958;21.780;2023-11-21T04:13:40;8.14;59.63
63976;DHT22;50167;47.958;21.780;2023-11-21T04:16:10;7.35;60.92
63976;DHT22;50167;47.958;21.780;2023-11-21T04:18:37;6.72;62.19
63976;DHT22;50167;47.958;21.780;2023-11-21T04:21:06;7.07;67.82
63976;DHT22;50167;47.958;21.780;2023-11-21T04:23:32;8.41;68.28
63976;DHT22;50167;47.958;21.780;2023-11-21T04:25:58;9.37;65.12
63976;DHT22;50167;47.958;21.780;2023-11-21T04:28:24;9.97;62.77
63976;DHT22;50167;47.958;21.780;2023-11-21T04:30:51;10.45;60.94
63976;DHT22;50167;47.958;21.780;2023-11-21T04:33:17;10.78;59.48
63976;DHT22;50167;47.958;21.780;2023-11-21T04:35:43;10.36;56.48
63976;DHT22;50167;47.958;21.780;2023-11-21T04:38:09;9.14;57.45
63976;DHT22;50167;47.958;21.780;2023-11-21T04:40:36;8.13;59.69
63976;DHT22;50167;47.958;21.780;2023-11-21T04:43:02;7.38;61.56
63976;DHT22;50167;47.958;21.780;2023-11-21T04:45:29;7.70;66.94
63976;DHT22;50167;47.958;21.780;2023-11-21T04:47:56;8.84;65.91
63976;DHT22;50167;47.958;21.780;2023-11-21T04:50:22;9.56;63.87
63976;DHT22;50167;47.958;21.780;2023-11-21T04:52:48;10.00;62.65
63976;DHT22;50167;47.958;21.780;2023-11-21T04:55:15;10.34;61.96
63976;DHT22;50167;47.958;21.780;2023-11-21T04:57:41;10.79;60.61
63976;DHT22;50167;47.958;21.780;2023-11-21T05:00:09;11.22;59.26
63976;DHT22;50167;47.958;21.780;2023-11-21T05:02:36;10.82;55.82
63976;DHT22;50167;47.958;21.780;2023-11-21T05:05:04;9.60;56.82
63976;DHT22;50167;47.958;21.780;2023-11-21T05:07:32;8.59;59.51
63976;DHT22;50167;47.958;21.780;2023-11-21T05:10:01;7.80;61.52
63976;DHT22;50167;47.958;21.780;2023-11-21T05:12:31;7.17;63.05
63976;DHT22;50167;47.958;21.780;2023-11-21T05:15:08;7.66;68.37
63976;DHT22;50167;47.958;21.780;2023-11-21T05:17:37;8.94;67.33
63976;DHT22;50167;47.958;21.780;2023-11-21T05:20:07;9.80;63.89
63976;DHT22;50167;47.958;21.780;2023-11-21T05:22:36;10.32;62.16
63976;DHT22;50167;47.958;21.780;2023-11-21T05:25:03;10.79;60.77
63976;DHT22;50167;47.958;21.780;2023-11-21T05:27:30;11.13;58.97
63976;DHT22;50167;47.958;21.780;2023-11-21T05:29:57;10.61;56.15
63976;DHT22;50167;47.958;21.780;2023-11-21T05:32:25;9.39;57.09
63976;DHT22;50167;47.958;21.780;2023-11-21T05:34:52;8.41;59.58
63976;DHT22;50167;47.958;21.780;2023-11-21T05:37:18;7.73;61.07
63976;DHT22;50167;47.958;21.780;2023-11-21T05:39:44;7.12;62.20
63976;DHT22;50167;47.958;21.780;2023-11-21T05:42:11;7.38;65.94
63976;DHT22;50167;47.958;21.780;2023-11-21T05:44:41;8.45;66.97
63976;DHT22;50167;47.958;21.780;2023-11-21T05:47:09;9.34;64.88
63976;DHT22;50167;47.958;21.780;2023-11-21T05:49:36;9.92;62.62
63976;DHT22;50167;47.958;21.780;2023-11-21T05:52:03;10.35;60.82
63976;DHT22;50167;47.958;21.780;2023-11-21T05:54:29;10.76;59.37
63976;DHT22;50167;47.958;21.780;2023-11-21T05:56:55;10.32;56.84
63976;DHT22;50167;47.958;21.780;2023-11-21T05:59:21;9.20;58.06
63976;DHT22;50167;47.958;21.780;2023-11-21T06:01:48;8.18;59.13
63976;DHT22;50167;47.958;21.780;2023-11-21T06:04:14;7.39;61.18
63976;DHT22;50167;47.958;21.780;2023-11-21T06:06:40;7.71;67.41
63976;DHT22;50167;47.958;21.780;2023-11-21T06:09:07;8.97;66.71
63976;DHT22;50167;47.958;21.780;2023-11-21T06:11:35;9.80;64.23
63976;DHT22;50167;47.958;21.780;2023-11-21T06:14:02;10.34;62.50
63976;DHT22;50167;47.958;21.780;2023-11-21T06:16:28;10.72;61.30
63976;DHT22;50167;47.958;21.780;2023-11-21T06:18:55;10.94;59.57
63976;DHT22;50167;47.958;21.780;2023-11-21T06:21:21;10.46;57.76
63976;DHT22;50167;47.958;21.780;2023-11-21T06:23:47;9.37;58.57
63976;DHT22;50167;47.958;21.780;2023-11-21T06:26:13;8.45;61.19
63976;DHT22;50167;47.958;21.780;2023-11-21T06:28:40;7.76;62.73
63976;DHT22;50167;47.958;21.780;2023-11-21T06:31:07;8.03;67.52
63976;DHT22;50167;47.958;21.780;2023-11-21T06:33:33;9.22;67.75
63976;DHT22;50167;47.958;21.780;2023-11-21T06:35:59;10.28;65.25
63976;DHT22;50167;47.958;21.780;2023-11-21T06:38:27;10.97;62.65
63976;DHT22;50167;47.958;21.780;2023-11-21T06:40:56;11.34;60.45
63976;DHT22;50167;47.958;21.780;2023-11-21T06:43:24;11.66;59.35
63976;DHT22;50167;47.958;21.780;2023-11-21T06:45:51;11.27;57.24
63976;DHT22;50167;47.958;21.780;2023-11-21T06:48:17;10.18;58.07
63976;DHT22;50167;47.958;21.780;2023-11-21T06:50:43;9.24;60.29
63976;DHT22;50167;47.958;21.780;2023-11-21T06:53:09;8.56;62.19
63976;DHT22;50167;47.958;21.780;2023-11-21T06:55:36;9.00;67.24
63976;DHT22;50167;47.958;21.780;2023-11-21T06:58:02;10.04;65.71
63976;DHT22;50167;47.958;21.780;2023-11-21T07:00:28;10.72;63.37
63976;DHT22;50167;47.958;21.780;2023-11-21T07:02:55;11.21;61.80
63976;DHT22;50167;47.958;21.780;2023-11-21T07:05:22;11.72;60.68
63976;DHT22;50167;47.958;21.780;2023-11-21T07:07:49;12.24;59.21
63976;DHT22;50167;47.958;21.780;2023-11-21T07:10:15;11.88;56.60
63976;DHT22;50167;47.958;21.780;2023-11-21T07:12:42;10.76;57.46
63976;DHT22;50167;47.958;21.780;2023-11-21T07:15:09;9.87;60.23
63976;DHT22;50167;47.958;21.780;2023-11-21T07:17:36;9.18;61.90
63976;DHT22;50167;47.958;21.780;2023-11-21T07:20:04;9.56;66.61
63976;DHT22;50167;47.958;21.780;2023-11-21T07:22:32;10.62;65.34
63976;DHT22;50167;47.958;21.780;2023-11-21T07:24:58;11.22;63.07
63976;DHT22;50167;47.958;21.780;2023-11-21T07:27:24;11.54;61.65
63976;DHT22;50167;47.958;21.780;2023-11-21T07:29:52;11.80;60.79
63976;DHT22;50167;47.958;21.780;2023-11-21T07:32:20;12.04;60.03
63976;DHT22;50167;47.958;21.780;2023-11-21T07:34:46;12.10;59.38
63976;DHT22;50167;47.958;21.780;2023-11-21T07:37:12;11.49;57.92
63976;DHT22;50167;47.958;21.780;2023-11-21T07:39:39;10.38;59.32
63976;DHT22;50167;47.958;21.780;2023-11-21T07:42:07;9.49;61.48
63976;DHT22;50167;47.958;21.780;2023-11-21T07:44:33;9.46;65.92
63976;DHT22;50167;47.958;21.780;2023-11-21T07:46:59;10.35;66.81
63976;DHT22;50167;47.958;21.780;2023-11-21T07:49:26;11.02;65.33
63976;DHT22;50167;47.958;21.780;2023-11-21T07:51:52;11.45;62.67
63976;DHT22;50167;47.958;21.780;2023-11-21T07:54:19;11.69;62.20
63976;DHT22;50167;47.958;21.780;2023-11-21T07:56:45;12.17;61.48
63976;DHT22;50167;47.958;21.780;2023-11-21T07:59:11;12.56;60.12
63976;DHT22;50167;47.958;21.780;2023-11-21T08:01:38;12.83;58.86
63976;DHT22;50167;47.958;21.780;2023-11-21T08:04:06;12.36;57.24
63976;DHT22;50167;47.958;21.780;2023-11-21T08:06:32;11.40;58.51
63976;DHT22;50167;47.958;21.780;2023-11-21T08:08:59;10.59;60.45
63976;DHT22;50167;47.958;21.780;2023-11-21T08:11:25;10.01;62.34
63976;DHT22;50167;47.958;21.780;2023-11-21T08:13:53;10.35;66.45
63976;DHT22;50167;47.958;21.780;2023-11-21T08:16:20;11.28;65.14
63976;DHT22;50167;47.958;21.780;2023-11-21T08:18:46;12.15;63.32
63976;DHT22;50167;47.958;21.780;2023-11-21T08:21:13;12.71;61.09
63976;DHT22;50167;47.958;21.780;2023-11-21T08:23:39;13.16;59.50
63976;DHT22;50167;47.958;21.780;2023-11-21T08:26:05;12.78;56.98
63976;DHT22;50167;47.958;21.780;2023-11-21T08:28:31;11.75;58.73
63976;DHT22;50167;47.958;21.780;2023-11-21T08:30:57;10.94;60.73
63976;DHT22;50167;47.958;21.780;2023-11-21T08:33:24;10.35;62.56
63976;DHT22;50167;47.958;21.780;2023-11-21T08:35:50;10.80;66.47
63976;DHT22;50167;47.958;21.780;2023-11-21T08:38:16;12.04;64.75
63976;DHT22;50167;47.958;21.780;2023-11-21T08:40:43;12.95;61.41
63976;DHT22;50167;47.958;21.780;2023-11-21T08:43:10;13.45;58.66
63976;DHT22;50167;47.958;21.780;2023-11-21T08:45:37;13.06;56.48
63976;DHT22;50167;47.958;21.780;2023-11-21T08:48:04;12.06;57.82
63976;DHT22;50167;47.958;21.780;2023-11-21T08:50:31;11.24;59.54
63976;DHT22;50167;47.958;21.780;2023-11-21T08:52:57;10.58;60.69
63976;DHT22;50167;47.958;21.780;2023-11-21T08:55:23;10.04;62.81
63976;DHT22;50167;47.958;21.780;2023-11-21T08:57:49;10.21;66.19
63976;DHT22;50167;47.958;21.780;2023-11-21T09:00:17;10.94;66.50
63976;DHT22;50167;47.958;21.780;2023-11-21T09:02:45;11.22;65.60
63976;DHT22;50167;47.958;21.780;2023-11-21T09:05:13;12.09;65.24
63976;DHT22;50167;47.958;21.780;2023-11-21T09:07:41;12.87;62.98
63976;DHT22;50167;47.958;21.780;2023-11-21T09:10:08;13.45;60.65
63976;DHT22;50167;47.958;21.780;2023-11-21T09:12:36;13.77;58.97
63976;DHT22;50167;47.958;21.780;2023-11-21T09:15:06;13.27;56.91
63976;DHT22;50167;47.958;21.780;2023-11-21T09:17:33;12.30;58.21
63976;DHT22;50167;47.958;21.780;2023-11-21T09:20:02;11.48;60.07
63976;DHT22;50167;47.958;21.780;2023-11-21T09:22:31;10.92;62.09
63976;DHT22;50167;47.958;21.780;2023-11-21T09:24:57;11.15;65.68
63976;DHT22;50167;47.958;21.780;2023-11-21T09:27:24;12.26;64.74
63976;DHT22;50167;47.958;21.780;2023-11-21T09:29:51;13.09;61.87
63976;DHT22;50167;47.958;21.780;2023-11-21T09:32:18;13.52;60.46
63976;DHT22;50167;47.958;21.780;2023-11-21T09:34:45;13.78;59.11
63976;DHT22;50167;47.958;21.780;2023-11-21T09:37:11;13.38;57.50
63976;DHT22;50167;47.958;21.780;2023-11-21T09:39:37;12.43;58.66
63976;DHT22;50167;47.958;21.780;2023-11-21T09:42:22;11.70;60.06
63976;DHT22;50167;47.958;21.780;2023-11-21T09:44:54;11.08;61.23
63976;DHT22;50167;47.958;21.780;2023-11-21T09:47:22;10.62;63.06
63976;DHT22;50167;47.958;21.780;2023-11-21T09:49:49;10.72;65.56
63976;DHT22;50167;47.958;21.780;2023-11-21T09:52:25;11.69;66.29
63976;DHT22;50167;47.958;21.780;2023-11-21T09:54:53;12.44;63.88
63976;DHT22;50167;47.958;21.780;2023-11-21T09:57:23;12.87;62.38
63976;DHT22;50167;47.958;21.780;2023-11-21T09:59:54;13.23;61.81
63976;DHT22;50167;47.958;21.780;2023-11-21T10:02:27;13.34;60.45
63976;DHT22;50167;47.958;21.780;2023-11-21T10:04:59;13.55;59.60
63976;DHT22;50167;47.958;21.780;2023-11-21T10:07:27;13.26;57.98
63976;DHT22;50167;47.958;21.780;2023-11-21T10:09:55;12.33;58.98
63976;DHT22;50167;47.958;21.780;2023-11-21T10:12:23;11.54;60.88
63976;DHT22;50167;47.958;21.780;2023-11-21T10:14:52;10.90;62.35
63976;DHT22;50167;47.958;21.780;2023-11-21T10:17:24;11.17;66.32
63976;DHT22;50167;47.958;21.780;2023-11-21T10:19:53;11.86;65.59
63976;DHT22;50167;47.958;21.780;2023-11-21T10:22:22;12.21;63.60
63976;DHT22;50167;47.958;21.780;2023-11-21T10:24:49;12.21;63.39
63976;DHT22;50167;47.958;21.780;2023-11-21T10:27:15;12.26;63.42
63976;DHT22;50167;47.958;21.780;2023-11-21T10:29:42;12.34;63.15
63976;DHT22;50167;47.958;21.780;2023-11-21T10:32:08;12.66;63.29
63976;DHT22;50167;47.958;21.780;2023-11-21T10:34:34;13.02;62.20
63976;DHT22;50167;47.958;21.780;2023-11-21T10:37:12;13.41;60.21
63976;DHT22;50167;47.958;21.780;2023-11-21T10:39:39;13.48;59.88
63976;DHT22;50167;47.958;21.780;2023-11-21T10:42:08;13.66;59.49
63976;DHT22;50167;47.958;21.780;2023-11-21T10:44:36;13.47;57.58
63976;DHT22;50167;47.958;21.780;2023-11-21T10:47:02;12.47;59.48
63976;DHT22;50167;47.958;21.780;2023-11-21T10:49:29;11.54;60.96
63976;DHT22;50167;47.958;21.780;2023-11-21T10:51:55;10.89;63.10
63976;DHT22;50167;47.958;21.780;2023-11-21T10:54:24;11.32;66.86
63976;DHT22;50167;47.958;21.780;2023-11-21T10:56:59;12.38;64.90
63976;DHT22;50167;47.958;21.780;2023-11-21T10:59:29;13.07;62.94
63976;DHT22;50167;47.958;21.780;2023-11-21T11:01:58;13.41;61.13
63976;DHT22;50167;47.958;21.780;2023-11-21T11:04:28;13.62;60.22
63976;DHT22;50167;47.958;21.780;2023-11-21T11:06:58;13.91;59.57
63976;DHT22;50167;47.958;21.780;2023-11-21T11:09:26;13.54;57.84
63976;DHT22;50167;47.958;21.780;2023-11-21T11:11:52;12.69;59.19
63976;DHT22;50167;47.958;21.780;2023-11-21T11:14:20;11.97;60.38
63976;DHT22;50167;47.958;21.780;2023-11-21T11:16:49;11.41;62.38
63976;DHT22;50167;47.958;21.780;2023-11-21T11:19:15;11.59;65.62
63976;DHT22;50167;47.958;21.780;2023-11-21T11:30:37;13.82;60.72
63976;DHT22;50167;47.958;21.780;2023-11-21T11:36:17;14.03;59.26
63976;DHT22;50167;47.958;21.780;2023-11-21T11:38:23;13.40;58.44
63976;DHT22;50167;47.958;21.780;2023-11-21T11:40:54;12.48;59.93
63976;DHT22;50167;47.958;21.780;2023-11-21T11:43:26;11.76;61.77
63976;DHT22;50167;47.958;21.780;2023-11-21T11:45:58;11.20;63.45
63976;DHT22;50167;47.958;21.780;2023-11-21T11:48:29;11.49;66.68
63976;DHT22;50167;47.958;21.780;2023-11-21T11:51:13;12.47;66.04
63976;DHT22;50167;47.958;21.780;2023-11-21T11:53:48;13.09;62.97
63976;DHT22;50167;47.958;21.780;2023-11-21T11:56:30;13.14;61.95
63976;DHT22;50167;47.958;21.780;2023-11-21T11:59:00;13.23;61.58
63976;DHT22;50167;47.958;21.780;2023-11-21T12:01:29;13.38;61.40
63976;DHT22;50167;47.958;21.780;2023-11-21T12:06:52;13.45;60.48
63976;DHT22;50167;47.958;21.780;2023-11-21T12:09:22;13.20;60.23
63976;DHT22;50167;47.958;21.780;2023-11-21T12:11:50;13.06;60.45
63976;DHT22;50167;47.958;21.780;2023-11-21T12:14:17;13.09;61.25
63976;DHT22;50167;47.958;21.780;2023-11-21T12:16:44;13.10;60.86
63976;DHT22;50167;47.958;21.780;2023-11-21T12:19:14;13.17;61.76
63976;DHT22;50167;47.958;21.780;2023-11-21T12:21:40;13.51;61.20
63976;DHT22;50167;47.958;21.780;2023-11-21T12:24:08;13.74;60.21
63976;DHT22;50167;47.958;21.780;2023-11-21T12:26:39;13.72;59.24
63976;DHT22;50167;47.958;21.780;2023-11-21T12:29:06;13.17;58.63
63976;DHT22;50167;47.958;21.780;2023-11-21T12:31:34;12.16;60.89
63976;DHT22;50167;47.958;21.780;2023-11-21T12:34:01;11.28;62.31
63976;DHT22;50167;47.958;21.780;2023-11-21T12:36:27;11.07;65.06
63976;DHT22;50167;47.958;21.780;2023-11-21T12:38:56;11.94;66.31
63976;DHT22;50167;47.958;21.780;2023-11-21T12:41:22;12.64;64.63
63976;DHT22;50167;47.958;21.780;2023-11-21T12:43:48;13.00;63.07
63976;DHT22;50167;47.958;21.780;2023-11-21T12:46:15;13.33;61.72
63976;DHT22;50167;47.958;21.780;2023-11-21T12:48:44;13.65;61.03
63976;DHT22;50167;47.958;21.780;2023-11-21T12:51:13;14.00;59.79
63976;DHT22;50167;47.958;21.780;2023-11-21T12:53:42;13.77;57.74
63976;DHT22;50167;47.958;21.780;2023-11-21T12:56:12;12.86;58.66
63976;DHT22;50167;47.958;21.780;2023-11-21T12:58:40;12.10;60.09
63976;DHT22;50167;47.958;21.780;2023-11-21T13:01:08;11.38;63.49
63976;DHT22;50167;47.958;21.780;2023-11-21T13:03:38;11.55;66.05
63976;DHT22;50167;47.958;21.780;2023-11-21T13:06:06;12.59;64.52
63976;DHT22;50167;47.958;21.780;2023-11-21T13:08:33;13.35;62.55
63976;DHT22;50167;47.958;21.780;2023-11-21T13:11:00;13.70;61.08
63976;DHT22;50167;47.958;21.780;2023-11-21T13:13:29;13.92;59.55
63976;DHT22;50167;47.958;21.780;2023-11-21T13:15:59;13.51;57.72
63976;DHT22;50167;47.958;21.780;2023-11-21T13:18:28;12.49;58.62
63976;DHT22;50167;47.958;21.780;2023-11-21T13:20:57;11.64;60.67
63976;DHT22;50167;47.958;21.780;2023-11-21T13:23:25;11.03;62.71
63976;DHT22;50167;47.958;21.780;2023-11-21T13:25:53;11.37;65.99
63976;DHT22;50167;47.958;21.780;2023-11-21T13:28:20;12.36;65.42
63976;DHT22;50167;47.958;21.780;2023-11-21T13:30:48;12.98;63.37
63976;DHT22;50167;47.958;21.780;2023-11-21T13:33:16;13.33;62.11
63976;DHT22;50167;47.958;21.780;2023-11-21T13:35:44;13.52;61.32
63976;DHT22;50167;47.958;21.780;2023-11-21T13:38:18;13.60;60.65
63976;DHT22;50167;47.958;21.780;2023-11-21T13:40:52;13.65;60.71
63976;DHT22;50167;47.958;21.780;2023-11-21T13:43:24;13.84;60.21
63976;DHT22;50167;47.958;21.780;2023-11-21T13:45:53;13.88;59.76
63976;DHT22;50167;47.958;21.780;2023-11-21T13:48:27;13.99;59.18
63976;DHT22;50167;47.958;21.780;2023-11-21T13:51:01;13.45;57.75
63976;DHT22;50167;47.958;21.780;2023-11-21T13:53:29;12.34;59.31
63976;DHT22;50167;47.958;21.780;2023-11-21T13:55:55;11.44;61.12
63976;DHT22;50167;47.958;21.780;2023-11-21T13:58:24;10.75;63.82
63976;DHT22;50167;47.958;21.780;2023-11-21T14:00:52;10.82;66.01
63976;DHT22;50167;47.958;21.780;2023-11-21T14:03:23;11.45;66.94
63976;DHT22;50167;47.958;21.780;2023-11-21T14:05:51;12.15;66.44
63976;DHT22;50167;47.958;21.780;2023-11-21T14:08:19;12.71;64.80
63976;DHT22;50167;47.958;21.780;2023-11-21T14:10:48;13.02;63.13
63976;DHT22;50167;47.958;21.780;2023-11-21T14:13:20;13.22;62.29
63976;DHT22;50167;47.958;21.780;2023-11-21T14:15:48;13.29;61.56
63976;DHT22;50167;47.958;21.780;2023-11-21T14:18:16;13.30;61.65
63976;DHT22;50167;47.958;21.780;2023-11-21T14:20:43;13.41;61.42
63976;DHT22;50167;47.958;21.780;2023-11-21T14:23:10;13.54;61.06
63976;DHT22;50167;47.958;21.780;2023-11-21T14:25:37;13.66;60.53
63976;DHT22;50167;47.958;21.780;2023-11-21T14:28:05;13.68;60.32
63976;DHT22;50167;47.958;21.780;2023-11-21T14:30:36;13.65;60.51
63976;DHT22;50167;47.958;21.780;2023-11-21T14:33:02;13.54;60.06
63976;DHT22;50167;47.958;21.780;2023-11-21T14:35:29;13.65;60.09
63976;DHT22;50167;47.958;21.780;2023-11-21T14:38:00;13.81;59.83
63976;DHT22;50167;47.958;21.780;2023-11-21T14:40:27;13.84;59.41
63976;DHT22;50167;47.958;21.780;2023-11-21T14:42:55;13.37;58.18
63976;DHT22;50167;47.958;21.780;2023-11-21T14:45:23;12.37;59.44
63976;DHT22;50167;47.958;21.780;2023-11-21T14:47:51;11.52;60.85
63976;DHT22;50167;47.958;21.780;2023-11-21T14:50:22;10.82;58.94
63976;DHT22;50167;47.958;21.780;2023-11-21T14:53:08;10.21;63.46
63976;DHT22;50167;47.958;21.780;2023-11-21T14:55:35;10.63;67.62
63976;DHT22;50167;47.958;21.780;2023-11-21T14:58:20;11.79;67.44
63976;DHT22;50167;47.958;21.780;2023-11-21T15:00:57;12.36;65.62
63976;DHT22;50167;47.958;21.780;2023-11-21T15:03:27;12.59;64.44
63976;DHT22;50167;47.958;21.780;2023-11-21T15:06:01;12.83;63.39
63976;DHT22;50167;47.958;21.780;2023-11-21T15:08:29;13.12;62.40
63976;DHT22;50167;47.958;21.780;2023-11-21T15:10:58;13.27;61.65
63976;DHT22;50167;47.958;21.780;2023-11-21T15:13:24;13.37;61.32
63976;DHT22;50167;47.958;21.780;2023-11-21T15:15:53;13.50;60.80
63976;DHT22;50167;47.958;21.780;2023-11-21T15:18:23;13.65;61.09
63976;DHT22;50167;47.958;21.780;2023-11-21T15:20:50;13.78;59.91
63976;DHT22;50167;47.958;21.780;2023-11-21T15:23:16;13.86;59.26
63976;DHT22;50167;47.958;21.780;2023-11-21T15:25:45;13.35;57.90
63976;DHT22;50167;47.958;21.780;2023-11-21T15:28:13;12.34;59.24
63976;DHT22;50167;47.958;21.780;2023-11-21T15:30:39;11.47;61.17
63976;DHT22;50167;47.958;21.780;2023-11-21T15:33:05;10.82;63.13
63976;DHT22;50167;47.958;21.780;2023-11-21T15:35:33;11.27;67.10